sensor_id;sensor_type;location;lat;lon;timestamp;P1;durP1;ratioP1;P2;durP2;ratioP2
43841;SDS011;29495;49.970;20.842;2022-12-11T00:00:22;24.00;;;13.07;;
43841;SDS011;29495;49.970;20.842;2022-12-11T00:02:49;30.73;;;13.95;;
43841;SDS011;29495;49.970;20.842;2022-12-11T00:05:15;25.73;;;13.73;;
43841;SDS011;29495;49.970;20.842;2022-12-11T00:07:41;24.85;;;12.88;;
43841;SDS011;29495;49.970;20.842;2022-12-11T00:10:07;27.30;;;13.45;;
43841;SDS011;29495;49.970;20.842;2022-12-11T00:12:33;26.20;;;12.30;;
43841;SDS011;29495;49.970;20.842;2022-12-11T00:14:59;22.00;;;11.40;;
43841;SDS011;29495;49.970;20.842;2022-12-11T00:17:25;21.20;;;10.57;;
43841;SDS011;29495;49.970;20.842;2022-12-11T00:19:51;23.05;;;12.63;;
43841;SDS011;29495;49.970;20.842;2022-12-11T00:25:10;23.38;;;11.63;;
43841;SDS011;29495;49.970;20.842;2022-12-11T00:27:36;18.60;;;10.20;;
43841;SDS011;29495;49.970;20.842;2022-12-11T00:30:02;20.70;;;10.68;;
43841;SDS011;29495;49.970;20.842;2022-12-11T00:32:29;22.77;;;11.48;;
43841;SDS011;29495;49.970;20.842;2022-12-11T00:34:56;23.13;;;11.07;;
43841;SDS011;29495;49.970;20.842;2022-12-11T00:37:22;20.88;;;10.52;;
43841;SDS011;29495;49.970;20.842;2022-12-11T00:39:48;20.90;;;10.82;;
43841;SDS011;29495;49.970;20.842;2022-12-11T00:42:14;20.45;;;10.50;;
43841;SDS011;29495;49.970;20.842;2022-12-11T00:44:40;17.83;;;9.77;;
43841;SDS011;29495;49.970;20.842;2022-12-11T00:47:06;23.38;;;9.98;;
43841;SDS011;29495;49.970;20.842;2022-12-11T00:49:33;19.67;;;10.35;;
43841;SDS011;29495;49.970;20.842;2022-12-11T00:51:59;22.90;;;12.02;;
43841;SDS011;29495;49.970;20.842;2022-12-11T00:54:25;19.10;;;9.77;;
43841;SDS011;29495;49.970;20.842;2022-12-11T00:56:51;18.90;;;9.88;;
43841;SDS011;29495;49.970;20.842;2022-12-11T00:59:18;17.73;;;9.80;;
43841;SDS011;29495;49.970;20.842;2022-12-11T01:01:44;21.52;;;10.40;;
43841;SDS011;29495;49.970;20.842;2022-12-11T01:04:10;18.67;;;9.70;;
43841;SDS011;29495;49.970;20.842;2022-12-11T01:06:36;14.80;;;8.85;;
43841;SDS011;29495;49.970;20.842;2022-12-11T01:09:03;21.00;;;9.77;;
43841;SDS011;29495;49.970;20.842;2022-12-11T01:11:48;19.75;;;10.15;;
43841;SDS011;29495;49.970;20.842;2022-12-11T01:14:15;17.23;;;9.60;;
43841;SDS011;29495;49.970;20.842;2022-12-11T01:16:41;22.13;;;11.75;;
43841;SDS011;29495;49.970;20.842;2022-12-11T01:19:07;21.25;;;10.30;;
43841;SDS011;29495;49.970;20.842;2022-12-11T01:21:33;16.67;;;9.43;;
43841;SDS011;29495;49.970;20.842;2022-12-11T01:23:59;17.25;;;9.77;;
43841;SDS011;29495;49.970;20.842;2022-12-11T01:26:25;17.90;;;9.35;;
43841;SDS011;29495;49.970;20.842;2022-12-11T01:28:51;18.13;;;9.73;;
43841;SDS011;29495;49.970;20.842;2022-12-11T01:31:20;19.90;;;10.00;;
43841;SDS011;29495;49.970;20.842;2022-12-11T01:33:46;21.45;;;11.32;;
43841;SDS011;29495;49.970;20.842;2022-12-11T01:36:14;19.05;;;10.23;;
43841;SDS011;29495;49.970;20.842;2022-12-11T01:38:44;15.70;;;9.02;;
43841;SDS011;29495;49.970;20.842;2022-12-11T01:41:10;19.17;;;10.15;;
43841;SDS011;29495;49.970;20.842;2022-12-11T01:46:21;18.23;;;10.20;;
43841;SDS011;29495;49.970;20.842;2022-12-11T01:48:47;20.05;;;10.43;;
43841;SDS011;29495;49.970;20.842;2022-12-11T01:51:13;23.70;;;13.13;;
43841;SDS011;29495;49.970;20.842;2022-12-11T01:53:40;22.55;;;13.15;;
43841;SDS011;29495;49.970;20.842;2022-12-11T01:56:10;21.95;;;12.05;;
43841;SDS011;29495;49.970;20.842;2022-12-11T01:58:41;25.48;;;13.57;;
43841;SDS011;29495;49.970;20.842;2022-12-11T02:01:13;25.02;;;12.93;;
43841;SDS011;29495;49.970;20.842;2022-12-11T02:04:00;21.33;;;12.13;;
43841;SDS011;29495;49.970;20.842;2022-12-11T02:06:30;20.15;;;11.48;;
43841;SDS011;29495;49.970;20.842;2022-12-11T02:09:03;22.77;;;12.45;;
43841;SDS011;29495;49.970;20.842;2022-12-11T02:11:37;23.02;;;13.02;;
43841;SDS011;29495;49.970;20.842;2022-12-11T02:14:25;25.02;;;13.63;;
43841;SDS011;29495;49.970;20.842;2022-12-11T02:20:16;27.55;;;14.20;;
43841;SDS011;29495;49.970;20.842;2022-12-11T02:23:03;26.88;;;13.77;;
43841;SDS011;29495;49.970;20.842;2022-12-11T02:28:32;26.77;;;15.02;;
43841;SDS011;29495;49.970;20.842;2022-12-11T02:31:04;26.80;;;14.88;;
43841;SDS011;29495;49.970;20.842;2022-12-11T02:33:37;24.77;;;13.82;;
43841;SDS011;29495;49.970;20.842;2022-12-11T02:36:27;24.92;;;13.05;;
43841;SDS011;29495;49.970;20.842;2022-12-11T02:38:56;25.90;;;13.63;;
43841;SDS011;29495;49.970;20.842;2022-12-11T02:41:24;22.33;;;13.07;;
43841;SDS011;29495;49.970;20.842;2022-12-11T02:43:51;20.75;;;12.05;;
43841;SDS011;29495;49.970;20.842;2022-12-11T02:46:19;27.45;;;14.13;;
43841;SDS011;29495;49.970;20.842;2022-12-11T02:48:47;27.35;;;14.50;;
43841;SDS011;29495;49.970;20.842;2022-12-11T02:51:15;22.23;;;13.17;;
43841;SDS011;29495;49.970;20.842;2022-12-11T02:53:43;25.60;;;13.53;;
43841;SDS011;29495;49.970;20.842;2022-12-11T02:56:15;23.05;;;12.70;;
43841;SDS011;29495;49.970;20.842;2022-12-11T02:58:54;24.70;;;13.15;;
43841;SDS011;29495;49.970;20.842;2022-12-11T03:01:35;24.55;;;12.13;;
43841;SDS011;29495;49.970;20.842;2022-12-11T03:04:01;24.42;;;13.75;;
43841;SDS011;29495;49.970;20.842;2022-12-11T03:06:31;23.67;;;12.77;;
43841;SDS011;29495;49.970;20.842;2022-12-11T03:09:01;22.58;;;12.38;;
43841;SDS011;29495;49.970;20.842;2022-12-11T03:11:28;21.25;;;11.75;;
43841;SDS011;29495;49.970;20.842;2022-12-11T03:13:54;28.67;;;14.32;;
43841;SDS011;29495;49.970;20.842;2022-12-11T03:16:34;26.75;;;13.55;;
43841;SDS011;29495;49.970;20.842;2022-12-11T03:27:07;24.05;;;14.07;;
43841;SDS011;29495;49.970;20.842;2022-12-11T03:29:41;27.98;;;14.65;;
43841;SDS011;29495;49.970;20.842;2022-12-11T03:32:19;22.42;;;13.13;;
43841;SDS011;29495;49.970;20.842;2022-12-11T03:34:59;28.13;;;14.23;;
43841;SDS011;29495;49.970;20.842;2022-12-11T03:37:31;27.10;;;14.10;;
43841;SDS011;29495;49.970;20.842;2022-12-11T03:40:03;22.98;;;12.55;;
43841;SDS011;29495;49.970;20.842;2022-12-11T03:42:36;21.55;;;12.40;;
43841;SDS011;29495;49.970;20.842;2022-12-11T03:45:04;22.63;;;12.55;;
43841;SDS011;29495;49.970;20.842;2022-12-11T03:47:32;21.40;;;12.85;;
43841;SDS011;29495;49.970;20.842;2022-12-11T03:49:59;23.23;;;12.00;;
43841;SDS011;29495;49.970;20.842;2022-12-11T03:52:28;23.63;;;13.85;;
43841;SDS011;29495;49.970;20.842;2022-12-11T03:54:57;27.10;;;12.63;;
43841;SDS011;29495;49.970;20.842;2022-12-11T03:57:28;23.92;;;11.77;;
43841;SDS011;29495;49.970;20.842;2022-12-11T03:59:56;24.17;;;12.68;;
43841;SDS011;29495;49.970;20.842;2022-12-11T04:02:23;21.27;;;11.77;;
43841;SDS011;29495;49.970;20.842;2022-12-11T04:04:49;20.70;;;10.20;;
43841;SDS011;29495;49.970;20.842;2022-12-11T04:07:15;20.60;;;10.38;;
43841;SDS011;29495;49.970;20.842;2022-12-11T04:09:41;19.48;;;9.93;;
43841;SDS011;29495;49.970;20.842;2022-12-11T04:12:07;21.75;;;10.30;;
43841;SDS011;29495;49.970;20.842;2022-12-11T04:14:33;18.55;;;10.15;;
43841;SDS011;29495;49.970;20.842;2022-12-11T04:17:17;20.25;;;10.20;;
43841;SDS011;29495;49.970;20.842;2022-12-11T04:20:02;17.83;;;9.57;;
43841;SDS011;29495;49.970;20.842;2022-12-11T04:22:48;19.33;;;10.15;;
43841;SDS011;29495;49.970;20.842;2022-12-11T04:25:32;18.40;;;10.30;;
43841;SDS011;29495;49.970;20.842;2022-12-11T04:27:58;17.58;;;9.23;;
43841;SDS011;29495;49.970;20.842;2022-12-11T04:30:25;18.02;;;9.52;;
43841;SDS011;29495;49.970;20.842;2022-12-11T04:32:52;16.52;;;9.77;;
43841;SDS011;29495;49.970;20.842;2022-12-11T04:35:18;17.98;;;9.18;;
43841;SDS011;29495;49.970;20.842;2022-12-11T04:37:45;18.35;;;8.88;;
43841;SDS011;29495;49.970;20.842;2022-12-11T04:40:12;17.88;;;9.50;;
43841;SDS011;29495;49.970;20.842;2022-12-11T04:42:41;15.32;;;8.20;;
43841;SDS011;29495;49.970;20.842;2022-12-11T04:45:07;18.23;;;9.60;;
43841;SDS011;29495;49.970;20.842;2022-12-11T04:47:35;19.23;;;9.90;;
43841;SDS011;29495;49.970;20.842;2022-12-11T04:50:02;17.63;;;8.80;;
43841;SDS011;29495;49.970;20.842;2022-12-11T04:52:29;14.32;;;7.55;;
43841;SDS011;29495;49.970;20.842;2022-12-11T04:54:55;13.70;;;7.53;;
43841;SDS011;29495;49.970;20.842;2022-12-11T04:57:21;15.48;;;8.80;;
43841;SDS011;29495;49.970;20.842;2022-12-11T04:59:47;16.27;;;8.65;;
43841;SDS011;29495;49.970;20.842;2022-12-11T05:02:14;14.80;;;8.68;;
43841;SDS011;29495;49.970;20.842;2022-12-11T05:04:41;15.70;;;8.45;;
43841;SDS011;29495;49.970;20.842;2022-12-11T05:07:07;16.88;;;8.23;;
43841;SDS011;29495;49.970;20.842;2022-12-11T05:09:34;16.00;;;8.55;;
43841;SDS011;29495;49.970;20.842;2022-12-11T05:12:00;15.18;;;8.40;;
43841;SDS011;29495;49.970;20.842;2022-12-11T05:14:27;15.25;;;8.43;;
43841;SDS011;29495;49.970;20.842;2022-12-11T05:16:56;15.30;;;8.18;;
43841;SDS011;29495;49.970;20.842;2022-12-11T05:19:23;14.27;;;7.88;;
43841;SDS011;29495;49.970;20.842;2022-12-11T05:21:50;14.05;;;8.15;;
43841;SDS011;29495;49.970;20.842;2022-12-11T05:24:16;16.70;;;8.98;;
43841;SDS011;29495;49.970;20.842;2022-12-11T05:26:42;14.90;;;7.32;;
43841;SDS011;29495;49.970;20.842;2022-12-11T05:29:08;15.10;;;7.82;;
43841;SDS011;29495;49.970;20.842;2022-12-11T05:31:34;22.52;;;12.45;;
43841;SDS011;29495;49.970;20.842;2022-12-11T05:34:00;17.02;;;9.45;;
43841;SDS011;29495;49.970;20.842;2022-12-11T05:36:27;14.32;;;8.02;;
43841;SDS011;29495;49.970;20.842;2022-12-11T05:38:56;11.35;;;7.20;;
43841;SDS011;29495;49.970;20.842;2022-12-11T05:41:23;15.45;;;8.15;;
43841;SDS011;29495;49.970;20.842;2022-12-11T05:43:50;15.45;;;7.63;;
43841;SDS011;29495;49.970;20.842;2022-12-11T05:46:18;14.98;;;7.95;;
43841;SDS011;29495;49.970;20.842;2022-12-11T05:48:49;15.50;;;8.20;;
43841;SDS011;29495;49.970;20.842;2022-12-11T05:53:44;16.90;;;8.75;;
43841;SDS011;29495;49.970;20.842;2022-12-11T05:56:12;13.68;;;7.32;;
43841;SDS011;29495;49.970;20.842;2022-12-11T05:58:41;16.13;;;9.40;;
43841;SDS011;29495;49.970;20.842;2022-12-11T06:01:09;14.02;;;8.07;;
43841;SDS011;29495;49.970;20.842;2022-12-11T06:03:38;14.40;;;8.98;;
43841;SDS011;29495;49.970;20.842;2022-12-11T06:06:04;14.32;;;8.18;;
43841;SDS011;29495;49.970;20.842;2022-12-11T06:08:31;19.48;;;9.93;;
43841;SDS011;29495;49.970;20.842;2022-12-11T06:10:58;13.90;;;8.10;;
43841;SDS011;29495;49.970;20.842;2022-12-11T06:13:24;16.52;;;8.25;;
43841;SDS011;29495;49.970;20.842;2022-12-11T06:15:50;17.17;;;9.00;;
43841;SDS011;29495;49.970;20.842;2022-12-11T06:18:17;13.63;;;7.75;;
43841;SDS011;29495;49.970;20.842;2022-12-11T06:20:43;16.25;;;9.32;;
43841;SDS011;29495;49.970;20.842;2022-12-11T06:23:09;16.92;;;10.32;;
43841;SDS011;29495;49.970;20.842;2022-12-11T06:25:37;16.00;;;7.97;;
43841;SDS011;29495;49.970;20.842;2022-12-11T06:28:03;11.07;;;6.90;;
43841;SDS011;29495;49.970;20.842;2022-12-11T06:30:29;14.20;;;7.80;;
43841;SDS011;29495;49.970;20.842;2022-12-11T06:32:56;13.20;;;7.28;;
43841;SDS011;29495;49.970;20.842;2022-12-11T06:35:23;12.00;;;6.80;;
43841;SDS011;29495;49.970;20.842;2022-12-11T06:37:50;14.02;;;7.72;;
43841;SDS011;29495;49.970;20.842;2022-12-11T06:40:16;21.05;;;9.52;;
43841;SDS011;29495;49.970;20.842;2022-12-11T06:42:42;16.50;;;8.57;;
43841;SDS011;29495;49.970;20.842;2022-12-11T06:45:08;15.57;;;8.85;;
43841;SDS011;29495;49.970;20.842;2022-12-11T06:47:35;14.93;;;8.00;;
43841;SDS011;29495;49.970;20.842;2022-12-11T06:50:01;17.50;;;10.05;;
43841;SDS011;29495;49.970;20.842;2022-12-11T06:52:27;30.02;;;16.33;;
43841;SDS011;29495;49.970;20.842;2022-12-11T06:54:53;25.33;;;15.40;;
43841;SDS011;29495;49.970;20.842;2022-12-11T06:57:20;18.67;;;10.48;;
43841;SDS011;29495;49.970;20.842;2022-12-11T06:59:46;16.52;;;7.45;;
43841;SDS011;29495;49.970;20.842;2022-12-11T07:02:13;13.10;;;7.32;;
43841;SDS011;29495;49.970;20.842;2022-12-11T07:04:41;16.63;;;8.77;;
43841;SDS011;29495;49.970;20.842;2022-12-11T07:07:08;13.00;;;7.93;;
43841;SDS011;29495;49.970;20.842;2022-12-11T07:09:34;13.73;;;8.02;;
43841;SDS011;29495;49.970;20.842;2022-12-11T07:12:01;13.10;;;7.63;;
43841;SDS011;29495;49.970;20.842;2022-12-11T07:14:28;14.77;;;8.20;;
43841;SDS011;29495;49.970;20.842;2022-12-11T07:16:56;13.82;;;7.72;;
43841;SDS011;29495;49.970;20.842;2022-12-11T07:19:22;16.10;;;8.25;;
43841;SDS011;29495;49.970;20.842;2022-12-11T07:21:49;13.88;;;7.85;;
43841;SDS011;29495;49.970;20.842;2022-12-11T07:24:15;17.95;;;9.63;;
43841;SDS011;29495;49.970;20.842;2022-12-11T07:26:41;17.65;;;9.02;;
43841;SDS011;29495;49.970;20.842;2022-12-11T07:29:07;18.75;;;9.30;;
43841;SDS011;29495;49.970;20.842;2022-12-11T07:31:33;16.33;;;8.07;;
43841;SDS011;29495;49.970;20.842;2022-12-11T07:34:00;14.10;;;7.60;;
43841;SDS011;29495;49.970;20.842;2022-12-11T07:36:28;18.23;;;8.73;;
43841;SDS011;29495;49.970;20.842;2022-12-11T07:38:54;17.23;;;9.13;;
43841;SDS011;29495;49.970;20.842;2022-12-11T07:41:21;28.63;;;12.38;;
43841;SDS011;29495;49.970;20.842;2022-12-11T07:43:52;30.30;;;12.98;;
43841;SDS011;29495;49.970;20.842;2022-12-11T07:46:20;27.92;;;11.85;;
43841;SDS011;29495;49.970;20.842;2022-12-11T07:48:47;33.28;;;13.25;;
43841;SDS011;29495;49.970;20.842;2022-12-11T07:51:18;19.10;;;9.35;;
43841;SDS011;29495;49.970;20.842;2022-12-11T07:53:52;16.30;;;8.35;;
43841;SDS011;29495;49.970;20.842;2022-12-11T07:56:23;12.10;;;7.55;;
43841;SDS011;29495;49.970;20.842;2022-12-11T07:58:50;12.88;;;7.20;;
43841;SDS011;29495;49.970;20.842;2022-12-11T08:01:21;17.30;;;9.52;;
43841;SDS011;29495;49.970;20.842;2022-12-11T08:03:50;31.20;;;14.82;;
43841;SDS011;29495;49.970;20.842;2022-12-11T08:06:17;29.77;;;14.82;;
43841;SDS011;29495;49.970;20.842;2022-12-11T08:08:43;20.13;;;10.32;;
43841;SDS011;29495;49.970;20.842;2022-12-11T08:11:10;14.88;;;8.18;;
43841;SDS011;29495;49.970;20.842;2022-12-11T08:13:39;13.52;;;8.10;;
43841;SDS011;29495;49.970;20.842;2022-12-11T08:16:06;18.50;;;10.73;;
43841;SDS011;29495;49.970;20.842;2022-12-11T08:18:34;18.02;;;8.82;;
43841;SDS011;29495;49.970;20.842;2022-12-11T08:21:04;13.55;;;7.85;;
43841;SDS011;29495;49.970;20.842;2022-12-11T08:23:31;11.18;;;6.80;;
43841;SDS011;29495;49.970;20.842;2022-12-11T08:25:58;11.93;;;7.32;;
43841;SDS011;29495;49.970;20.842;2022-12-11T08:28:25;10.13;;;6.88;;
43841;SDS011;29495;49.970;20.842;2022-12-11T08:30:51;10.20;;;6.78;;
43841;SDS011;29495;49.970;20.842;2022-12-11T08:33:18;15.13;;;9.52;;
43841;SDS011;29495;49.970;20.842;2022-12-11T08:35:44;15.25;;;9.13;;
43841;SDS011;29495;49.970;20.842;2022-12-11T08:38:11;17.20;;;8.73;;
43841;SDS011;29495;49.970;20.842;2022-12-11T08:40:37;15.10;;;8.18;;
43841;SDS011;29495;49.970;20.842;2022-12-11T08:43:03;10.70;;;7.40;;
43841;SDS011;29495;49.970;20.842;2022-12-11T08:45:29;11.43;;;6.43;;
43841;SDS011;29495;49.970;20.842;2022-12-11T08:47:56;12.00;;;7.10;;
43841;SDS011;29495;49.970;20.842;2022-12-11T08:50:23;12.05;;;7.35;;
43841;SDS011;29495;49.970;20.842;2022-12-11T08:52:50;13.73;;;7.82;;
43841;SDS011;29495;49.970;20.842;2022-12-11T08:55:16;14.13;;;8.02;;
43841;SDS011;29495;49.970;20.842;2022-12-11T08:57:42;9.35;;;6.50;;
43841;SDS011;29495;49.970;20.842;2022-12-11T09:00:10;11.57;;;6.97;;
43841;SDS011;29495;49.970;20.842;2022-12-11T09:02:37;11.93;;;5.60;;
43841;SDS011;29495;49.970;20.842;2022-12-11T09:05:03;14.10;;;7.90;;
43841;SDS011;29495;49.970;20.842;2022-12-11T09:07:32;12.55;;;7.15;;
43841;SDS011;29495;49.970;20.842;2022-12-11T09:09:59;12.55;;;7.45;;
43841;SDS011;29495;49.970;20.842;2022-12-11T09:12:26;18.13;;;10.18;;
43841;SDS011;29495;49.970;20.842;2022-12-11T09:14:53;16.20;;;8.90;;
43841;SDS011;29495;49.970;20.842;2022-12-11T09:17:19;18.05;;;9.13;;
43841;SDS011;29495;49.970;20.842;2022-12-11T09:19:45;12.82;;;8.52;;
43841;SDS011;29495;49.970;20.842;2022-12-11T09:22:11;15.65;;;8.50;;
43841;SDS011;29495;49.970;20.842;2022-12-11T09:24:38;14.90;;;9.05;;
43841;SDS011;29495;49.970;20.842;2022-12-11T09:27:04;16.60;;;9.02;;
43841;SDS011;29495;49.970;20.842;2022-12-11T09:29:31;17.90;;;9.23;;
43841;SDS011;29495;49.970;20.842;2022-12-11T09:31:57;17.90;;;8.73;;
43841;SDS011;29495;49.970;20.842;2022-12-11T09:34:23;17.08;;;8.80;;
43841;SDS011;29495;49.970;20.842;2022-12-11T09:36:49;16.17;;;8.90;;
43841;SDS011;29495;49.970;20.842;2022-12-11T09:39:16;16.23;;;8.75;;
43841;SDS011;29495;49.970;20.842;2022-12-11T09:47:47;15.82;;;9.43;;
43841;SDS011;29495;49.970;20.842;2022-12-11T09:55:39;17.48;;;9.77;;
43841;SDS011;29495;49.970;20.842;2022-12-11T10:16:10;23.33;;;10.57;;
43841;SDS011;29495;49.970;20.842;2022-12-11T10:18:49;21.13;;;10.50;;
43841;SDS011;29495;49.970;20.842;2022-12-11T10:21:16;19.00;;;9.88;;
43841;SDS011;29495;49.970;20.842;2022-12-11T10:23:52;21.48;;;10.15;;
43841;SDS011;29495;49.970;20.842;2022-12-11T10:26:22;20.77;;;10.90;;
43841;SDS011;29495;49.970;20.842;2022-12-11T10:28:49;21.52;;;10.18;;
43841;SDS011;29495;49.970;20.842;2022-12-11T10:31:19;17.92;;;9.77;;
43841;SDS011;29495;49.970;20.842;2022-12-11T10:34:11;21.05;;;10.93;;
43841;SDS011;29495;49.970;20.842;2022-12-11T10:36:40;22.75;;;10.13;;
43841;SDS011;29495;49.970;20.842;2022-12-11T10:39:14;20.85;;;11.45;;
43841;SDS011;29495;49.970;20.842;2022-12-11T10:41:44;19.98;;;10.43;;
43841;SDS011;29495;49.970;20.842;2022-12-11T10:44:16;17.55;;;9.73;;
43841;SDS011;29495;49.970;20.842;2022-12-11T10:46:45;19.33;;;10.35;;
43841;SDS011;29495;49.970;20.842;2022-12-11T10:49:25;21.42;;;11.00;;
43841;SDS011;29495;49.970;20.842;2022-12-11T10:51:55;22.67;;;11.82;;
43841;SDS011;29495;49.970;20.842;2022-12-11T10:56:54;22.15;;;11.85;;
43841;SDS011;29495;49.970;20.842;2022-12-11T11:04:48;24.85;;;13.70;;
43841;SDS011;29495;49.970;20.842;2022-12-11T11:07:24;23.98;;;12.40;;
43841;SDS011;29495;49.970;20.842;2022-12-11T11:12:37;24.63;;;11.77;;
43841;SDS011;29495;49.970;20.842;2022-12-11T11:15:21;22.48;;;10.98;;
43841;SDS011;29495;49.970;20.842;2022-12-11T11:18:10;18.00;;;10.05;;
43841;SDS011;29495;49.970;20.842;2022-12-11T11:20:45;19.65;;;10.32;;
43841;SDS011;29495;49.970;20.842;2022-12-11T11:23:15;20.98;;;11.70;;
43841;SDS011;29495;49.970;20.842;2022-12-11T11:25:50;18.33;;;10.20;;
43841;SDS011;29495;49.970;20.842;2022-12-11T11:28:24;17.95;;;10.85;;
43841;SDS011;29495;49.970;20.842;2022-12-11T11:31:13;22.15;;;11.43;;
43841;SDS011;29495;49.970;20.842;2022-12-11T11:36:40;20.98;;;11.40;;
43841;SDS011;29495;49.970;20.842;2022-12-11T11:44:25;18.63;;;10.15;;
43841;SDS011;29495;49.970;20.842;2022-12-11T11:47:01;17.23;;;9.38;;
43841;SDS011;29495;49.970;20.842;2022-12-11T11:50:23;18.02;;;9.85;;
43841;SDS011;29495;49.970;20.842;2022-12-11T11:53:11;19.30;;;10.48;;
43841;SDS011;29495;49.970;20.842;2022-12-11T11:55:53;14.02;;;8.52;;
43841;SDS011;29495;49.970;20.842;2022-12-11T11:59:14;19.40;;;9.82;;
43841;SDS011;29495;49.970;20.842;2022-12-11T12:02:15;23.10;;;10.98;;
43841;SDS011;29495;49.970;20.842;2022-12-11T12:04:44;18.48;;;10.27;;
43841;SDS011;29495;49.970;20.842;2022-12-11T12:07:35;19.50;;;10.45;;
43841;SDS011;29495;49.970;20.842;2022-12-11T12:13:16;17.83;;;9.68;;
43841;SDS011;29495;49.970;20.842;2022-12-11T12:15:57;15.02;;;8.95;;
43841;SDS011;29495;49.970;20.842;2022-12-11T12:18:37;17.88;;;9.85;;
43841;SDS011;29495;49.970;20.842;2022-12-11T12:21:18;17.67;;;9.23;;
43841;SDS011;29495;49.970;20.842;2022-12-11T12:26:37;17.90;;;9.48;;
43841;SDS011;29495;49.970;20.842;2022-12-11T12:32:04;17.30;;;9.85;;
43841;SDS011;29495;49.970;20.842;2022-12-11T12:35:04;18.00;;;10.27;;
43841;SDS011;29495;49.970;20.842;2022-12-11T12:40:29;17.95;;;10.68;;
43841;SDS011;29495;49.970;20.842;2022-12-11T12:43:27;17.98;;;10.50;;
43841;SDS011;29495;49.970;20.842;2022-12-11T12:49:24;18.40;;;10.93;;
43841;SDS011;29495;49.970;20.842;2022-12-11T12:52:15;20.20;;;11.27;;
43841;SDS011;29495;49.970;20.842;2022-12-11T12:55:23;17.60;;;10.68;;
43841;SDS011;29495;49.970;20.842;2022-12-11T12:57:55;22.65;;;11.65;;
43841;SDS011;29495;49.970;20.842;2022-12-11T13:03:20;18.38;;;10.52;;
43841;SDS011;29495;49.970;20.842;2022-12-11T13:06:07;17.13;;;9.88;;
43841;SDS011;29495;49.970;20.842;2022-12-11T13:08:45;20.90;;;11.18;;
43841;SDS011;29495;49.970;20.842;2022-12-11T13:11:17;19.90;;;12.18;;
43841;SDS011;29495;49.970;20.842;2022-12-11T13:14:03;21.17;;;11.30;;
43841;SDS011;29495;49.970;20.842;2022-12-11T13:19:45;22.75;;;12.25;;
43841;SDS011;29495;49.970;20.842;2022-12-11T13:25:32;24.13;;;12.18;;
43841;SDS011;29495;49.970;20.842;2022-12-11T13:28:33;23.40;;;13.07;;
43841;SDS011;29495;49.970;20.842;2022-12-11T13:33:44;24.42;;;14.43;;
43841;SDS011;29495;49.970;20.842;2022-12-11T13:36:22;27.90;;;14.10;;
43841;SDS011;29495;49.970;20.842;2022-12-11T13:38:55;24.73;;;13.48;;
43841;SDS011;29495;49.970;20.842;2022-12-11T13:41:26;22.95;;;12.77;;
43841;SDS011;29495;49.970;20.842;2022-12-11T13:43:52;26.45;;;14.75;;
43841;SDS011;29495;49.970;20.842;2022-12-11T13:46:21;24.73;;;14.32;;
43841;SDS011;29495;49.970;20.842;2022-12-11T13:49:02;26.35;;;14.48;;
43841;SDS011;29495;49.970;20.842;2022-12-11T13:51:31;24.58;;;13.65;;
43841;SDS011;29495;49.970;20.842;2022-12-11T13:54:01;25.85;;;13.70;;
43841;SDS011;29495;49.970;20.842;2022-12-11T13:59:29;27.42;;;14.90;;
43841;SDS011;29495;49.970;20.842;2022-12-11T14:02:02;27.27;;;15.02;;
43841;SDS011;29495;49.970;20.842;2022-12-11T14:04:39;30.70;;;17.05;;
43841;SDS011;29495;49.970;20.842;2022-12-11T14:07:14;30.35;;;16.42;;
43841;SDS011;29495;49.970;20.842;2022-12-11T14:09:49;28.83;;;15.77;;
43841;SDS011;29495;49.970;20.842;2022-12-11T14:12:19;31.70;;;17.58;;
43841;SDS011;29495;49.970;20.842;2022-12-11T14:14:57;36.45;;;19.15;;
43841;SDS011;29495;49.970;20.842;2022-12-11T14:17:36;40.15;;;20.70;;
43841;SDS011;29495;49.970;20.842;2022-12-11T14:20:17;40.13;;;19.75;;
43841;SDS011;29495;49.970;20.842;2022-12-11T14:22:48;38.53;;;22.08;;
43841;SDS011;29495;49.970;20.842;2022-12-11T14:25:21;39.58;;;20.65;;
43841;SDS011;29495;49.970;20.842;2022-12-11T14:28:05;36.88;;;19.02;;
43841;SDS011;29495;49.970;20.842;2022-12-11T14:30:58;39.63;;;20.55;;
43841;SDS011;29495;49.970;20.842;2022-12-11T14:33:30;40.22;;;20.08;;
43841;SDS011;29495;49.970;20.842;2022-12-11T14:36:24;38.17;;;20.65;;
43841;SDS011;29495;49.970;20.842;2022-12-11T14:38:55;36.78;;;20.38;;
43841;SDS011;29495;49.970;20.842;2022-12-11T14:41:30;36.97;;;18.98;;
43841;SDS011;29495;49.970;20.842;2022-12-11T14:44:11;38.58;;;20.65;;
43841;SDS011;29495;49.970;20.842;2022-12-11T14:49:20;36.67;;;19.70;;
43841;SDS011;29495;49.970;20.842;2022-12-11T14:51:47;35.78;;;18.80;;
43841;SDS011;29495;49.970;20.842;2022-12-11T14:54:27;29.63;;;16.75;;
43841;SDS011;29495;49.970;20.842;2022-12-11T14:56:57;29.65;;;15.95;;
43841;SDS011;29495;49.970;20.842;2022-12-11T14:59:26;29.08;;;16.25;;
43841;SDS011;29495;49.970;20.842;2022-12-11T15:01:59;28.75;;;16.80;;
43841;SDS011;29495;49.970;20.842;2022-12-11T15:04:32;27.02;;;14.73;;
43841;SDS011;29495;49.970;20.842;2022-12-11T15:06:58;30.67;;;16.33;;
43841;SDS011;29495;49.970;20.842;2022-12-11T15:09:28;28.35;;;15.68;;
43841;SDS011;29495;49.970;20.842;2022-12-11T15:12:14;35.17;;;17.80;;
43841;SDS011;29495;49.970;20.842;2022-12-11T15:14:47;35.83;;;17.73;;
43841;SDS011;29495;49.970;20.842;2022-12-11T15:17:25;31.23;;;16.85;;
43841;SDS011;29495;49.970;20.842;2022-12-11T15:20:10;33.63;;;17.35;;
43841;SDS011;29495;49.970;20.842;2022-12-11T15:22:48;35.33;;;17.05;;
43841;SDS011;29495;49.970;20.842;2022-12-11T15:25:21;33.80;;;16.75;;
43841;SDS011;29495;49.970;20.842;2022-12-11T15:27:58;32.33;;;17.92;;
43841;SDS011;29495;49.970;20.842;2022-12-11T15:30:26;38.13;;;16.77;;
43841;SDS011;29495;49.970;20.842;2022-12-11T15:33:02;38.63;;;18.58;;
43841;SDS011;29495;49.970;20.842;2022-12-11T15:35:29;33.17;;;16.38;;
43841;SDS011;29495;49.970;20.842;2022-12-11T15:37:56;32.10;;;14.80;;
43841;SDS011;29495;49.970;20.842;2022-12-11T15:40:23;30.58;;;15.32;;
43841;SDS011;29495;49.970;20.842;2022-12-11T15:42:49;28.73;;;14.07;;
43841;SDS011;29495;49.970;20.842;2022-12-11T15:45:17;27.25;;;14.00;;
43841;SDS011;29495;49.970;20.842;2022-12-11T15:47:48;34.70;;;16.92;;
43841;SDS011;29495;49.970;20.842;2022-12-11T15:52:46;29.25;;;15.32;;
43841;SDS011;29495;49.970;20.842;2022-12-11T15:55:13;29.98;;;15.15;;
43841;SDS011;29495;49.970;20.842;2022-12-11T15:57:43;29.90;;;14.57;;
43841;SDS011;29495;49.970;20.842;2022-12-11T16:00:15;28.45;;;14.85;;
43841;SDS011;29495;49.970;20.842;2022-12-11T16:02:43;29.00;;;13.98;;
43841;SDS011;29495;49.970;20.842;2022-12-11T16:05:15;27.92;;;14.82;;
43841;SDS011;29495;49.970;20.842;2022-12-11T16:07:42;26.67;;;14.15;;
43841;SDS011;29495;49.970;20.842;2022-12-11T16:10:11;22.92;;;13.18;;
43841;SDS011;29495;49.970;20.842;2022-12-11T16:12:40;29.92;;;14.55;;
43841;SDS011;29495;49.970;20.842;2022-12-11T16:15:08;30.35;;;14.30;;
43841;SDS011;29495;49.970;20.842;2022-12-11T16:17:35;26.55;;;15.30;;
43841;SDS011;29495;49.970;20.842;2022-12-11T16:20:01;31.30;;;15.95;;